sensor_id;sensor_type;location;lat;lon;timestamp;P1;durP1;ratioP1;P2;durP2;ratioP2
12721;SDS011;6425;50.316;8.114;2022-07-29T00:00:16;2.97;;;0.90;;
12721;SDS011;6425;50.316;8.114;2022-07-29T00:05:18;7.43;;;1.00;;
12721;SDS011;6425;50.316;8.114;2022-07-29T00:10:18;5.20;;;0.77;;
12721;SDS011;6425;50.316;8.114;2022-07-29T00:15:19;5.73;;;0.70;;
12721;SDS011;6425;50.316;8.114;2022-07-29T00:20:21;7.10;;;1.10;;
12721;SDS011;6425;50.316;8.114;2022-07-29T00:25:21;3.70;;;1.00;;
12721;SDS011;6425;50.316;8.114;2022-07-29T00:30:22;4.73;;;1.00;;
12721;SDS011;6425;50.316;8.114;2022-07-29T00:35:24;5.47;;;1.13;;
12721;SDS011;6425;50.316;8.114;2022-07-29T00:40:24;5.40;;;0.83;;
12721;SDS011;6425;50.316;8.114;2022-07-29T00:45:25;5.30;;;0.83;;
12721;SDS011;6425;50.316;8.114;2022-07-29T00:50:27;4.20;;;1.17;;
12721;SDS011;6425;50.316;8.114;2022-07-29T00:55:27;4.83;;;0.90;;
12721;SDS011;6425;50.316;8.114;2022-07-29T01:00:29;6.53;;;2.27;;
12721;SDS011;6425;50.316;8.114;2022-07-29T01:05:31;6.27;;;2.03;;
12721;SDS011;6425;50.316;8.114;2022-07-29T01:10:33;2.47;;;1.40;;
12721;SDS011;6425;50.316;8.114;2022-07-29T01:15:39;7.60;;;1.23;;
12721;SDS011;6425;50.316;8.114;2022-07-29T01:20:58;4.80;;;1.80;;
12721;SDS011;6425;50.316;8.114;2022-07-29T01:26:21;4.47;;;1.17;;
12721;SDS011;6425;50.316;8.114;2022-07-29T01:31:33;5.47;;;1.50;;
12721;SDS011;6425;50.316;8.114;2022-07-29T01:36:47;4.27;;;1.27;;
12721;SDS011;6425;50.316;8.114;2022-07-29T01:41:53;2.77;;;1.50;;
12721;SDS011;6425;50.316;8.114;2022-07-29T01:47:00;3.50;;;1.53;;
12721;SDS011;6425;50.316;8.114;2022-07-29T01:52:07;1.80;;;1.67;;
12721;SDS011;6425;50.316;8.114;2022-07-29T01:57:13;2.73;;;1.50;;
12721;SDS011;6425;50.316;8.114;2022-07-29T02:02:17;2.43;;;1.50;;
12721;SDS011;6425;50.316;8.114;2022-07-29T02:07:19;6.40;;;1.83;;
12721;SDS011;6425;50.316;8.114;2022-07-29T02:12:21;7.33;;;3.70;;
12721;SDS011;6425;50.316;8.114;2022-07-29T02:17:29;6.80;;;4.33;;
12721;SDS011;6425;50.316;8.114;2022-07-29T02:22:33;6.57;;;4.23;;
12721;SDS011;6425;50.316;8.114;2022-07-29T02:27:37;6.53;;;3.77;;
12721;SDS011;6425;50.316;8.114;2022-07-29T02:32:41;8.73;;;3.20;;
12721;SDS011;6425;50.316;8.114;2022-07-29T02:37:43;7.20;;;3.17;;
12721;SDS011;6425;50.316;8.114;2022-07-29T02:42:45;4.77;;;2.83;;
12721;SDS011;6425;50.316;8.114;2022-07-29T02:47:48;7.27;;;2.80;;
12721;SDS011;6425;50.316;8.114;2022-07-29T02:52:52;8.70;;;3.07;;
12721;SDS011;6425;50.316;8.114;2022-07-29T02:57:58;4.33;;;2.67;;
12721;SDS011;6425;50.316;8.114;2022-07-29T03:03:04;5.50;;;2.87;;
12721;SDS011;6425;50.316;8.114;2022-07-29T03:08:08;6.30;;;2.70;;
12721;SDS011;6425;50.316;8.114;2022-07-29T03:13:10;5.93;;;3.00;;
12721;SDS011;6425;50.316;8.114;2022-07-29T03:18:13;6.27;;;3.77;;
12721;SDS011;6425;50.316;8.114;2022-07-29T03:23:18;10.53;;;2.97;;
12721;SDS011;6425;50.316;8.114;2022-07-29T03:28:19;3.70;;;2.80;;
12721;SDS011;6425;50.316;8.114;2022-07-29T03:33:21;9.90;;;3.93;;
12721;SDS011;6425;50.316;8.114;2022-07-29T03:38:23;5.70;;;3.87;;
12721;SDS011;6425;50.316;8.114;2022-07-29T03:43:28;7.33;;;3.00;;
12721;SDS011;6425;50.316;8.114;2022-07-29T03:48:33;5.07;;;3.60;;
12721;SDS011;6425;50.316;8.114;2022-07-29T03:53:37;6.47;;;3.60;;
12721;SDS011;6425;50.316;8.114;2022-07-29T03:58:37;8.43;;;4.23;;
12721;SDS011;6425;50.316;8.114;2022-07-29T04:03:40;9.47;;;4.17;;
12721;SDS011;6425;50.316;8.114;2022-07-29T04:08:42;10.70;;;4.10;;
12721;SDS011;6425;50.316;8.114;2022-07-29T04:13:42;6.80;;;3.73;;
12721;SDS011;6425;50.316;8.114;2022-07-29T04:18:44;9.30;;;3.70;;
12721;SDS011;6425;50.316;8.114;2022-07-29T04:23:44;7.07;;;3.53;;
12721;SDS011;6425;50.316;8.114;2022-07-29T04:28:45;5.83;;;3.20;;
12721;SDS011;6425;50.316;8.114;2022-07-29T04:33:47;6.17;;;3.77;;
12721;SDS011;6425;50.316;8.114;2022-07-29T04:38:48;4.97;;;3.67;;
12721;SDS011;6425;50.316;8.114;2022-07-29T04:43:48;5.53;;;3.17;;
12721;SDS011;6425;50.316;8.114;2022-07-29T04:48:50;7.00;;;3.20;;
12721;SDS011;6425;50.316;8.114;2022-07-29T04:53:51;9.03;;;3.20;;
12721;SDS011;6425;50.316;8.114;2022-07-29T04:58:51;7.00;;;2.60;;
12721;SDS011;6425;50.316;8.114;2022-07-29T05:03:53;4.23;;;2.33;;
12721;SDS011;6425;50.316;8.114;2022-07-29T05:08:54;6.77;;;2.43;;
12721;SDS011;6425;50.316;8.114;2022-07-29T05:13:54;5.50;;;2.60;;
12721;SDS011;6425;50.316;8.114;2022-07-29T05:18:56;7.77;;;3.77;;
12721;SDS011;6425;50.316;8.114;2022-07-29T05:23:56;9.30;;;3.33;;
12721;SDS011;6425;50.316;8.114;2022-07-29T05:28:57;6.43;;;3.00;;
12721;SDS011;6425;50.316;8.114;2022-07-29T05:33:59;4.63;;;3.27;;
12721;SDS011;6425;50.316;8.114;2022-07-29T05:38:59;8.07;;;3.03;;
12721;SDS011;6425;50.316;8.114;2022-07-29T05:43:59;6.10;;;3.40;;
12721;SDS011;6425;50.316;8.114;2022-07-29T05:49:01;7.27;;;3.00;;
12721;SDS011;6425;50.316;8.114;2022-07-29T05:54:02;7.63;;;3.23;;
12721;SDS011;6425;50.316;8.114;2022-07-29T05:59:03;6.07;;;2.93;;
12721;SDS011;6425;50.316;8.114;2022-07-29T06:04:04;4.80;;;3.17;;
12721;SDS011;6425;50.316;8.114;2022-07-29T06:09:05;5.37;;;2.50;;
12721;SDS011;6425;50.316;8.114;2022-07-29T06:14:06;5.30;;;2.70;;
12721;SDS011;6425;50.316;8.114;2022-07-29T06:19:07;9.13;;;3.63;;
12721;SDS011;6425;50.316;8.114;2022-07-29T06:24:08;9.40;;;3.90;;
12721;SDS011;6425;50.316;8.114;2022-07-29T06:29:11;10.30;;;3.50;;
12721;SDS011;6425;50.316;8.114;2022-07-29T06:34:15;6.43;;;3.33;;
12721;SDS011;6425;50.316;8.114;2022-07-29T06:39:16;11.37;;;3.50;;
12721;SDS011;6425;50.316;8.114;2022-07-29T06:44:17;9.80;;;3.40;;
12721;SDS011;6425;50.316;8.114;2022-07-29T06:49:19;6.23;;;2.83;;
12721;SDS011;6425;50.316;8.114;2022-07-29T06:54:19;9.17;;;2.93;;
12721;SDS011;6425;50.316;8.114;2022-07-29T06:59:20;4.43;;;2.33;;
12721;SDS011;6425;50.316;8.114;2022-07-29T07:04:22;7.73;;;2.57;;
12721;SDS011;6425;50.316;8.114;2022-07-29T07:09:23;5.40;;;2.03;;
12721;SDS011;6425;50.316;8.114;2022-07-29T07:14:23;9.03;;;2.00;;
12721;SDS011;6425;50.316;8.114;2022-07-29T07:19:25;5.57;;;1.87;;
12721;SDS011;6425;50.316;8.114;2022-07-29T07:24:26;2.03;;;1.37;;
12721;SDS011;6425;50.316;8.114;2022-07-29T07:29:26;6.73;;;1.83;;
12721;SDS011;6425;50.316;8.114;2022-07-29T07:34:29;10.30;;;1.97;;
12721;SDS011;6425;50.316;8.114;2022-07-29T07:39:30;5.40;;;1.50;;
12721;SDS011;6425;50.316;8.114;2022-07-29T07:44:30;4.87;;;1.83;;
12721;SDS011;6425;50.316;8.114;2022-07-29T07:49:32;10.10;;;1.60;;
12721;SDS011;6425;50.316;8.114;2022-07-29T07:54:33;4.10;;;1.90;;
12721;SDS011;6425;50.316;8.114;2022-07-29T07:59:33;2.63;;;1.87;;
12721;SDS011;6425;50.316;8.114;2022-07-29T08:04:35;6.47;;;2.13;;
12721;SDS011;6425;50.316;8.114;2022-07-29T08:09:39;6.83;;;2.03;;
12721;SDS011;6425;50.316;8.114;2022-07-29T11:47:11;4.40;;;4.10;;
12721;SDS011;6425;50.316;8.114;2022-07-29T13:04:43;4.20;;;3.90;;
12721;SDS011;6425;50.316;8.114;2022-07-29T13:28:17;5.37;;;2.73;;
12721;SDS011;6425;50.316;8.114;2022-07-29T13:33:26;4.70;;;2.80;;
12721;SDS011;6425;50.316;8.114;2022-07-29T14:33:15;14.30;;;8.20;;
12721;SDS011;6425;50.316;8.114;2022-07-29T15:21:23;5.30;;;4.80;;
12721;SDS011;6425;50.316;8.114;2022-07-29T15:27:21;4.80;;;4.20;;
12721;SDS011;6425;50.316;8.114;2022-07-29T18:02:36;7.83;;;7.03;;
12721;SDS011;6425;50.316;8.114;2022-07-29T18:07:54;7.90;;;6.97;;
12721;SDS011;6425;50.316;8.114;2022-07-29T18:13:20;8.20;;;6.80;;
12721;SDS011;6425;50.316;8.114;2022-07-29T18:36:43;9.00;;;6.83;;
12721;SDS011;6425;50.316;8.114;2022-07-29T19:12:39;7.13;;;4.80;;
12721;SDS011;6425;50.316;8.114;2022-07-29T19:35:27;8.90;;;5.37;;
12721;SDS011;6425;50.316;8.114;2022-07-29T19:47:05;7.00;;;5.10;;
12721;SDS011;6425;50.316;8.114;2022-07-29T20:29:09;9.30;;;6.03;;
12721;SDS011;6425;50.316;8.114;2022-07-29T20:34:47;9.50;;;6.40;;
12721;SDS011;6425;50.316;8.114;2022-07-29T20:40:34;9.57;;;6.57;;
12721;SDS011;6425;50.316;8.114;2022-07-29T21:04:11;10.63;;;5.23;;
12721;SDS011;6425;50.316;8.114;2022-07-29T21:09:43;5.60;;;5.10;;
12721;SDS011;6425;50.316;8.114;2022-07-29T21:20:36;8.33;;;5.83;;
12721;SDS011;6425;50.316;8.114;2022-07-29T21:37:24;11.83;;;7.30;;
12721;SDS011;6425;50.316;8.114;2022-07-29T21:42:24;8.37;;;7.30;;
12721;SDS011;6425;50.316;8.114;2022-07-29T21:47:25;7.67;;;6.93;;
12721;SDS011;6425;50.316;8.114;2022-07-29T21:52:27;10.83;;;8.17;;
12721;SDS011;6425;50.316;8.114;2022-07-29T21:57:27;10.63;;;8.30;;
12721;SDS011;6425;50.316;8.114;2022-07-29T22:02:28;10.67;;;8.20;;
12721;SDS011;6425;50.316;8.114;2022-07-29T22:07:30;11.73;;;9.40;;
12721;SDS011;6425;50.316;8.114;2022-07-29T22:12:30;10.73;;;9.27;;
12721;SDS011;6425;50.316;8.114;2022-07-29T22:17:31;11.67;;;9.67;;
12721;SDS011;6425;50.316;8.114;2022-07-29T22:22:33;14.10;;;10.80;;
12721;SDS011;6425;50.316;8.114;2022-07-29T22:27:33;12.53;;;11.03;;
12721;SDS011;6425;50.316;8.114;2022-07-29T22:32:35;21.60;;;14.43;;
12721;SDS011;6425;50.316;8.114;2022-07-29T22:37:37;15.37;;;10.83;;
12721;SDS011;6425;50.316;8.114;2022-07-29T22:42:37;18.23;;;10.47;;
12721;SDS011;6425;50.316;8.114;2022-07-29T22:47:38;13.13;;;9.87;;
12721;SDS011;6425;50.316;8.114;2022-07-29T22:52:40;11.53;;;10.17;;
12721;SDS011;6425;50.316;8.114;2022-07-29T22:57:40;13.23;;;11.73;;
12721;SDS011;6425;50.316;8.114;2022-07-29T23:02:41;12.03;;;10.43;;
12721;SDS011;6425;50.316;8.114;2022-07-29T23:07:43;15.17;;;11.63;;
12721;SDS011;6425;50.316;8.114;2022-07-29T23:12:43;12.47;;;10.10;;
12721;SDS011;6425;50.316;8.114;2022-07-29T23:17:44;12.00;;;10.30;;
12721;SDS011;6425;50.316;8.114;2022-07-29T23:22:46;12.53;;;10.13;;
12721;SDS011;6425;50.316;8.114;2022-07-29T23:27:47;12.27;;;10.90;;
12721;SDS011;6425;50.316;8.114;2022-07-29T23:32:47;10.70;;;9.70;;
12721;SDS011;6425;50.316;8.114;2022-07-29T23:37:49;10.67;;;9.60;;
12721;SDS011;6425;50.316;8.114;2022-07-29T23:42:50;11.17;;;9.00;;
12721;SDS011;6425;50.316;8.114;2022-07-29T23:47:51;10.63;;;9.20;;
12721;SDS011;6425;50.316;8.114;2022-07-29T23:52:53;11.27;;;9.50;;
12721;SDS011;6425;50.316;8.114;2022-07-29T23:57:54;10.63;;;9.53;;
